sensor_id;sensor_type;location;lat;lon;timestamp;P1;durP1;ratioP1;P2;durP2;ratioP2
16624;SDS011;8426;48.496;9.098;2022-11-14T00:04:16;10.63;;;5.80;;
16624;SDS011;8426;48.496;9.098;2022-11-14T00:09:23;11.37;;;5.73;;
16624;SDS011;8426;48.496;9.098;2022-11-14T00:14:26;12.03;;;7.13;;
16624;SDS011;8426;48.496;9.098;2022-11-14T00:19:30;15.03;;;7.70;;
16624;SDS011;8426;48.496;9.098;2022-11-14T00:24:34;9.90;;;6.13;;
16624;SDS011;8426;48.496;9.098;2022-11-14T00:29:38;14.10;;;6.43;;
16624;SDS011;8426;48.496;9.098;2022-11-14T00:34:45;12.60;;;6.63;;
16624;SDS011;8426;48.496;9.098;2022-11-14T00:39:49;17.07;;;7.43;;
16624;SDS011;8426;48.496;9.098;2022-11-14T00:44:52;14.13;;;7.57;;
16624;SDS011;8426;48.496;9.098;2022-11-14T00:49:56;13.47;;;7.50;;
16624;SDS011;8426;48.496;9.098;2022-11-14T00:55:00;12.80;;;7.17;;
16624;SDS011;8426;48.496;9.098;2022-11-14T01:00:04;12.67;;;6.10;;
16624;SDS011;8426;48.496;9.098;2022-11-14T01:05:09;12.63;;;7.10;;
16624;SDS011;8426;48.496;9.098;2022-11-14T01:10:14;13.67;;;7.27;;
16624;SDS011;8426;48.496;9.098;2022-11-14T01:15:17;12.83;;;6.90;;
16624;SDS011;8426;48.496;9.098;2022-11-14T01:20:21;12.60;;;7.13;;
16624;SDS011;8426;48.496;9.098;2022-11-14T01:25:25;15.23;;;7.17;;
16624;SDS011;8426;48.496;9.098;2022-11-14T01:30:31;13.73;;;6.43;;
16624;SDS011;8426;48.496;9.098;2022-11-14T01:35:34;14.87;;;7.30;;
16624;SDS011;8426;48.496;9.098;2022-11-14T01:47:02;14.83;;;6.77;;
16624;SDS011;8426;48.496;9.098;2022-11-14T01:52:07;13.77;;;7.50;;
16624;SDS011;8426;48.496;9.098;2022-11-14T01:57:19;12.37;;;6.07;;
16624;SDS011;8426;48.496;9.098;2022-11-14T02:02:28;14.13;;;7.07;;
16624;SDS011;8426;48.496;9.098;2022-11-14T02:07:32;15.43;;;7.27;;
16624;SDS011;8426;48.496;9.098;2022-11-14T02:12:38;14.27;;;7.40;;
16624;SDS011;8426;48.496;9.098;2022-11-14T02:17:42;15.40;;;7.17;;
16624;SDS011;8426;48.496;9.098;2022-11-14T02:22:47;15.53;;;8.13;;
16624;SDS011;8426;48.496;9.098;2022-11-14T02:27:51;14.73;;;7.47;;
16624;SDS011;8426;48.496;9.098;2022-11-14T02:32:54;13.03;;;6.53;;
16624;SDS011;8426;48.496;9.098;2022-11-14T02:38:12;11.80;;;6.43;;
16624;SDS011;8426;48.496;9.098;2022-11-14T02:43:16;12.07;;;6.33;;
16624;SDS011;8426;48.496;9.098;2022-11-14T02:48:19;10.43;;;5.57;;
16624;SDS011;8426;48.496;9.098;2022-11-14T02:53:24;10.30;;;5.40;;
16624;SDS011;8426;48.496;9.098;2022-11-14T02:58:27;11.83;;;6.10;;
16624;SDS011;8426;48.496;9.098;2022-11-14T03:03:31;11.17;;;6.30;;
16624;SDS011;8426;48.496;9.098;2022-11-14T03:08:36;13.63;;;7.03;;
16624;SDS011;8426;48.496;9.098;2022-11-14T03:13:39;14.13;;;6.70;;
16624;SDS011;8426;48.496;9.098;2022-11-14T03:18:42;13.60;;;6.83;;
16624;SDS011;8426;48.496;9.098;2022-11-14T03:23:47;12.63;;;6.60;;
16624;SDS011;8426;48.496;9.098;2022-11-14T03:28:50;12.73;;;6.73;;
16624;SDS011;8426;48.496;9.098;2022-11-14T03:33:55;15.13;;;6.53;;
16624;SDS011;8426;48.496;9.098;2022-11-14T03:39:00;10.70;;;5.60;;
16624;SDS011;8426;48.496;9.098;2022-11-14T03:44:04;12.87;;;6.40;;
16624;SDS011;8426;48.496;9.098;2022-11-14T03:49:07;13.67;;;6.70;;
16624;SDS011;8426;48.496;9.098;2022-11-14T03:54:12;13.70;;;6.40;;
16624;SDS011;8426;48.496;9.098;2022-11-14T03:59:15;12.60;;;6.47;;
16624;SDS011;8426;48.496;9.098;2022-11-14T04:04:18;16.23;;;6.50;;
16624;SDS011;8426;48.496;9.098;2022-11-14T04:09:23;11.47;;;5.80;;
16624;SDS011;8426;48.496;9.098;2022-11-14T04:14:26;10.70;;;6.60;;
16624;SDS011;8426;48.496;9.098;2022-11-14T04:19:30;16.13;;;7.37;;
16624;SDS011;8426;48.496;9.098;2022-11-14T04:24:34;12.93;;;6.57;;
16624;SDS011;8426;48.496;9.098;2022-11-14T04:29:38;13.57;;;7.20;;
16624;SDS011;8426;48.496;9.098;2022-11-14T04:34:41;16.17;;;7.70;;
16624;SDS011;8426;48.496;9.098;2022-11-14T04:39:45;15.40;;;7.10;;
16624;SDS011;8426;48.496;9.098;2022-11-14T04:44:48;14.90;;;7.73;;
16624;SDS011;8426;48.496;9.098;2022-11-14T04:49:52;14.13;;;6.70;;
16624;SDS011;8426;48.496;9.098;2022-11-14T04:54:56;12.10;;;5.77;;
16624;SDS011;8426;48.496;9.098;2022-11-14T04:59:59;11.13;;;5.57;;
16624;SDS011;8426;48.496;9.098;2022-11-14T05:05:03;14.23;;;5.20;;
16624;SDS011;8426;48.496;9.098;2022-11-14T05:10:09;12.67;;;6.03;;
16624;SDS011;8426;48.496;9.098;2022-11-14T05:15:12;10.97;;;6.50;;
16624;SDS011;8426;48.496;9.098;2022-11-14T05:20:15;11.33;;;5.90;;
16624;SDS011;8426;48.496;9.098;2022-11-14T05:25:20;10.67;;;5.80;;
16624;SDS011;8426;48.496;9.098;2022-11-14T05:30:23;9.73;;;5.47;;
16624;SDS011;8426;48.496;9.098;2022-11-14T05:35:26;10.97;;;5.93;;
16624;SDS011;8426;48.496;9.098;2022-11-14T05:40:31;10.23;;;5.40;;
16624;SDS011;8426;48.496;9.098;2022-11-14T05:45:34;9.23;;;5.57;;
16624;SDS011;8426;48.496;9.098;2022-11-14T05:50:37;15.70;;;8.07;;
16624;SDS011;8426;48.496;9.098;2022-11-14T05:55:42;11.80;;;5.73;;
16624;SDS011;8426;48.496;9.098;2022-11-14T06:00:45;8.73;;;4.63;;
16624;SDS011;8426;48.496;9.098;2022-11-14T06:05:54;8.30;;;4.03;;
16624;SDS011;8426;48.496;9.098;2022-11-14T06:11:02;10.37;;;5.03;;
16624;SDS011;8426;48.496;9.098;2022-11-14T06:16:06;9.13;;;4.63;;
16624;SDS011;8426;48.496;9.098;2022-11-14T06:21:12;9.10;;;4.80;;
16624;SDS011;8426;48.496;9.098;2022-11-14T06:26:20;9.87;;;6.10;;
16624;SDS011;8426;48.496;9.098;2022-11-14T06:31:24;14.80;;;8.33;;
16624;SDS011;8426;48.496;9.098;2022-11-14T06:36:28;15.00;;;7.63;;
16624;SDS011;8426;48.496;9.098;2022-11-14T06:41:33;16.23;;;8.47;;
16624;SDS011;8426;48.496;9.098;2022-11-14T06:46:36;12.70;;;7.40;;
16624;SDS011;8426;48.496;9.098;2022-11-14T06:51:39;10.97;;;6.53;;
16624;SDS011;8426;48.496;9.098;2022-11-14T06:56:44;12.43;;;7.60;;
16624;SDS011;8426;48.496;9.098;2022-11-14T07:01:47;10.27;;;5.63;;
16624;SDS011;8426;48.496;9.098;2022-11-14T07:06:50;11.00;;;5.17;;
16624;SDS011;8426;48.496;9.098;2022-11-14T07:11:55;10.00;;;5.37;;
16624;SDS011;8426;48.496;9.098;2022-11-14T07:16:58;18.25;;;9.68;;
16624;SDS011;8426;48.496;9.098;2022-11-14T07:22:01;12.30;;;5.60;;
16624;SDS011;8426;48.496;9.098;2022-11-14T07:27:06;10.57;;;5.30;;
16624;SDS011;8426;48.496;9.098;2022-11-14T07:32:12;10.40;;;6.17;;
16624;SDS011;8426;48.496;9.098;2022-11-14T07:37:15;13.03;;;6.00;;
16624;SDS011;8426;48.496;9.098;2022-11-14T07:42:20;15.23;;;7.57;;
16624;SDS011;8426;48.496;9.098;2022-11-14T07:47:23;25.73;;;11.43;;
16624;SDS011;8426;48.496;9.098;2022-11-14T07:52:28;12.73;;;6.70;;
16624;SDS011;8426;48.496;9.098;2022-11-14T07:57:33;8.30;;;4.03;;
16624;SDS011;8426;48.496;9.098;2022-11-14T08:02:44;5.40;;;2.73;;
16624;SDS011;8426;48.496;9.098;2022-11-14T08:07:49;6.63;;;3.23;;
16624;SDS011;8426;48.496;9.098;2022-11-14T08:12:57;4.75;;;2.42;;
16624;SDS011;8426;48.496;9.098;2022-11-14T08:18:21;4.30;;;2.10;;
16624;SDS011;8426;48.496;9.098;2022-11-14T08:23:25;3.50;;;1.85;;
16624;SDS011;8426;48.496;9.098;2022-11-14T08:28:39;3.85;;;2.05;;
16624;SDS011;8426;48.496;9.098;2022-11-14T08:33:42;3.95;;;1.63;;
16624;SDS011;8426;48.496;9.098;2022-11-14T08:38:45;6.65;;;2.17;;
16624;SDS011;8426;48.496;9.098;2022-11-14T08:43:53;2.83;;;1.50;;
16624;SDS011;8426;48.496;9.098;2022-11-14T08:48:57;2.65;;;1.27;;
16624;SDS011;8426;48.496;9.098;2022-11-14T08:54:04;2.45;;;1.42;;
16624;SDS011;8426;48.496;9.098;2022-11-14T08:59:10;2.40;;;1.50;;
16624;SDS011;8426;48.496;9.098;2022-11-14T09:04:14;1.80;;;1.17;;
16624;SDS011;8426;48.496;9.098;2022-11-14T09:09:20;2.08;;;1.15;;
16624;SDS011;8426;48.496;9.098;2022-11-14T09:14:33;1.73;;;1.10;;
16624;SDS011;8426;48.496;9.098;2022-11-14T09:19:38;1.40;;;1.10;;
16624;SDS011;8426;48.496;9.098;2022-11-14T09:24:43;1.63;;;0.90;;
16624;SDS011;8426;48.496;9.098;2022-11-14T09:29:51;1.27;;;0.88;;
16624;SDS011;8426;48.496;9.098;2022-11-14T09:34:57;2.03;;;0.82;;
16624;SDS011;8426;48.496;9.098;2022-11-14T09:40:04;5.95;;;1.00;;
16624;SDS011;8426;48.496;9.098;2022-11-14T09:45:30;2.30;;;0.70;;
16624;SDS011;8426;48.496;9.098;2022-11-14T09:50:39;1.40;;;0.68;;
16624;SDS011;8426;48.496;9.098;2022-11-14T09:55:54;0.95;;;0.52;;
16624;SDS011;8426;48.496;9.098;2022-11-14T10:01:05;1.42;;;0.57;;
16624;SDS011;8426;48.496;9.098;2022-11-14T10:06:20;1.02;;;0.73;;
16624;SDS011;8426;48.496;9.098;2022-11-14T10:11:32;0.80;;;0.70;;
16624;SDS011;8426;48.496;9.098;2022-11-14T10:16:47;1.08;;;0.52;;
16624;SDS011;8426;48.496;9.098;2022-11-14T10:22:02;0.73;;;0.57;;
16624;SDS011;8426;48.496;9.098;2022-11-14T10:27:15;1.30;;;0.50;;
16624;SDS011;8426;48.496;9.098;2022-11-14T10:37:50;1.58;;;0.43;;
16624;SDS011;8426;48.496;9.098;2022-11-14T10:43:02;1.20;;;0.60;;
16624;SDS011;8426;48.496;9.098;2022-11-14T10:48:23;0.98;;;0.50;;
16624;SDS011;8426;48.496;9.098;2022-11-14T10:53:45;1.00;;;0.40;;
16624;SDS011;8426;48.496;9.098;2022-11-14T10:58:53;0.82;;;0.70;;
16624;SDS011;8426;48.496;9.098;2022-11-14T11:03:58;1.08;;;0.77;;
16624;SDS011;8426;48.496;9.098;2022-11-14T11:09:16;0.35;;;0.30;;
16624;SDS011;8426;48.496;9.098;2022-11-14T11:14:46;1.13;;;0.75;;
16624;SDS011;8426;48.496;9.098;2022-11-14T11:19:53;1.13;;;0.52;;
16624;SDS011;8426;48.496;9.098;2022-11-14T11:24:56;0.70;;;0.60;;
16624;SDS011;8426;48.496;9.098;2022-11-14T11:30:06;1.60;;;0.90;;
16624;SDS011;8426;48.496;9.098;2022-11-14T11:35:21;0.90;;;0.50;;
16624;SDS011;8426;48.496;9.098;2022-11-14T11:40:29;1.00;;;0.70;;
16624;SDS011;8426;48.496;9.098;2022-11-14T11:45:32;2.50;;;0.70;;
16624;SDS011;8426;48.496;9.098;2022-11-14T11:50:37;2.60;;;0.70;;
16624;SDS011;8426;48.496;9.098;2022-11-14T11:55:52;1.35;;;0.77;;
16624;SDS011;8426;48.496;9.098;2022-11-14T12:01:05;2.63;;;1.00;;
16624;SDS011;8426;48.496;9.098;2022-11-14T12:06:14;0.98;;;0.75;;
16624;SDS011;8426;48.496;9.098;2022-11-14T12:11:26;1.60;;;0.60;;
16624;SDS011;8426;48.496;9.098;2022-11-14T12:16:36;1.20;;;0.80;;
16624;SDS011;8426;48.496;9.098;2022-11-14T12:22:16;1.17;;;0.60;;
16624;SDS011;8426;48.496;9.098;2022-11-14T12:27:41;1.10;;;0.70;;
16624;SDS011;8426;48.496;9.098;2022-11-14T12:32:53;1.38;;;0.80;;
16624;SDS011;8426;48.496;9.098;2022-11-14T12:38:03;2.15;;;0.70;;
16624;SDS011;8426;48.496;9.098;2022-11-14T12:43:26;1.65;;;0.63;;
16624;SDS011;8426;48.496;9.098;2022-11-14T12:48:37;3.67;;;0.90;;
16624;SDS011;8426;48.496;9.098;2022-11-14T12:53:44;1.38;;;0.80;;
16624;SDS011;8426;48.496;9.098;2022-11-14T12:58:54;1.27;;;0.80;;
16624;SDS011;8426;48.496;9.098;2022-11-14T13:04:29;0.70;;;0.60;;
16624;SDS011;8426;48.496;9.098;2022-11-14T13:09:54;1.70;;;0.82;;
16624;SDS011;8426;48.496;9.098;2022-11-14T13:15:18;4.63;;;0.95;;
16624;SDS011;8426;48.496;9.098;2022-11-14T13:20:59;2.45;;;0.80;;
16624;SDS011;8426;48.496;9.098;2022-11-14T13:26:35;2.17;;;1.00;;
16624;SDS011;8426;48.496;9.098;2022-11-14T13:31:46;3.40;;;0.95;;
16624;SDS011;8426;48.496;9.098;2022-11-14T13:36:53;1.83;;;1.00;;
16624;SDS011;8426;48.496;9.098;2022-11-14T13:42:10;1.73;;;0.88;;
16624;SDS011;8426;48.496;9.098;2022-11-14T13:47:39;3.42;;;0.90;;
16624;SDS011;8426;48.496;9.098;2022-11-14T13:52:54;2.40;;;0.90;;
16624;SDS011;8426;48.496;9.098;2022-11-14T13:58:03;2.00;;;1.00;;
16624;SDS011;8426;48.496;9.098;2022-11-14T14:03:18;7.07;;;1.17;;
16624;SDS011;8426;48.496;9.098;2022-11-14T14:08:37;4.63;;;1.00;;
16624;SDS011;8426;48.496;9.098;2022-11-14T14:14:01;2.20;;;1.10;;
16624;SDS011;8426;48.496;9.098;2022-11-14T14:19:20;1.95;;;0.85;;
16624;SDS011;8426;48.496;9.098;2022-11-14T14:24:33;1.90;;;1.00;;
16624;SDS011;8426;48.496;9.098;2022-11-14T14:29:50;3.97;;;1.08;;
16624;SDS011;8426;48.496;9.098;2022-11-14T14:40:24;3.60;;;1.00;;
16624;SDS011;8426;48.496;9.098;2022-11-14T14:45:31;5.35;;;1.25;;
16624;SDS011;8426;48.496;9.098;2022-11-14T14:50:47;2.65;;;1.23;;
16624;SDS011;8426;48.496;9.098;2022-11-14T14:55:53;4.50;;;1.42;;
16624;SDS011;8426;48.496;9.098;2022-11-14T15:01:00;2.67;;;1.15;;
16624;SDS011;8426;48.496;9.098;2022-11-14T15:06:17;2.15;;;1.30;;
16624;SDS011;8426;48.496;9.098;2022-11-14T15:11:30;6.35;;;1.52;;
16624;SDS011;8426;48.496;9.098;2022-11-14T15:16:35;2.35;;;1.30;;
16624;SDS011;8426;48.496;9.098;2022-11-14T15:21:38;6.20;;;1.42;;
16624;SDS011;8426;48.496;9.098;2022-11-14T15:26:42;2.45;;;1.40;;
16624;SDS011;8426;48.496;9.098;2022-11-14T15:31:48;2.92;;;1.17;;
16624;SDS011;8426;48.496;9.098;2022-11-14T15:42:26;2.40;;;1.50;;
16624;SDS011;8426;48.496;9.098;2022-11-14T15:47:33;2.70;;;1.30;;
16624;SDS011;8426;48.496;9.098;2022-11-14T15:52:48;4.15;;;1.45;;
16624;SDS011;8426;48.496;9.098;2022-11-14T15:57:55;2.75;;;1.30;;
16624;SDS011;8426;48.496;9.098;2022-11-14T16:03:20;2.17;;;1.33;;
16624;SDS011;8426;48.496;9.098;2022-11-14T16:08:24;5.93;;;1.70;;
16624;SDS011;8426;48.496;9.098;2022-11-14T16:13:28;3.92;;;1.60;;
16624;SDS011;8426;48.496;9.098;2022-11-14T16:18:33;2.47;;;1.38;;
16624;SDS011;8426;48.496;9.098;2022-11-14T16:23:36;5.05;;;1.67;;
16624;SDS011;8426;48.496;9.098;2022-11-14T16:28:40;2.70;;;1.45;;
16624;SDS011;8426;48.496;9.098;2022-11-14T16:33:45;3.03;;;1.48;;
16624;SDS011;8426;48.496;9.098;2022-11-14T16:38:48;2.15;;;1.40;;
16624;SDS011;8426;48.496;9.098;2022-11-14T16:43:53;2.63;;;1.45;;
16624;SDS011;8426;48.496;9.098;2022-11-14T16:48:58;2.17;;;1.27;;
16624;SDS011;8426;48.496;9.098;2022-11-14T16:54:01;5.10;;;1.52;;
16624;SDS011;8426;48.496;9.098;2022-11-14T16:59:07;3.80;;;1.60;;
16624;SDS011;8426;48.496;9.098;2022-11-14T17:04:12;2.13;;;1.40;;
16624;SDS011;8426;48.496;9.098;2022-11-14T17:09:16;3.35;;;1.92;;
16624;SDS011;8426;48.496;9.098;2022-11-14T17:14:19;4.18;;;2.35;;
16624;SDS011;8426;48.496;9.098;2022-11-14T17:19:24;7.95;;;2.72;;
16624;SDS011;8426;48.496;9.098;2022-11-14T17:24:27;3.78;;;1.98;;
16624;SDS011;8426;48.496;9.098;2022-11-14T17:29:32;5.40;;;1.60;;
16624;SDS011;8426;48.496;9.098;2022-11-14T17:34:36;4.28;;;2.10;;
16624;SDS011;8426;48.496;9.098;2022-11-14T17:39:39;2.42;;;1.30;;
16624;SDS011;8426;48.496;9.098;2022-11-14T17:44:43;4.32;;;1.50;;
16624;SDS011;8426;48.496;9.098;2022-11-14T17:49:47;2.80;;;1.60;;
16624;SDS011;8426;48.496;9.098;2022-11-14T17:54:50;2.83;;;1.70;;
16624;SDS011;8426;48.496;9.098;2022-11-14T17:59:54;3.03;;;1.58;;
16624;SDS011;8426;48.496;9.098;2022-11-14T18:04:58;2.88;;;1.42;;
16624;SDS011;8426;48.496;9.098;2022-11-14T18:10:02;3.00;;;1.60;;
16624;SDS011;8426;48.496;9.098;2022-11-14T18:15:05;5.15;;;1.70;;
16624;SDS011;8426;48.496;9.098;2022-11-14T18:20:10;1.52;;;1.10;;
16624;SDS011;8426;48.496;9.098;2022-11-14T18:25:14;2.97;;;1.25;;
16624;SDS011;8426;48.496;9.098;2022-11-14T18:30:17;1.33;;;0.90;;
16624;SDS011;8426;48.496;9.098;2022-11-14T18:35:42;2.60;;;1.48;;
16624;SDS011;8426;48.496;9.098;2022-11-14T18:40:45;2.00;;;1.35;;
16624;SDS011;8426;48.496;9.098;2022-11-14T18:46:02;7.32;;;2.40;;
16624;SDS011;8426;48.496;9.098;2022-11-14T18:51:09;8.10;;;3.67;;
16624;SDS011;8426;48.496;9.098;2022-11-14T18:56:16;6.68;;;3.83;;
16624;SDS011;8426;48.496;9.098;2022-11-14T19:01:21;6.95;;;3.40;;
16624;SDS011;8426;48.496;9.098;2022-11-14T19:06:32;8.48;;;4.38;;
16624;SDS011;8426;48.496;9.098;2022-11-14T19:11:36;8.40;;;4.22;;
16624;SDS011;8426;48.496;9.098;2022-11-14T19:16:57;7.47;;;3.30;;
16624;SDS011;8426;48.496;9.098;2022-11-14T19:22:02;11.20;;;2.97;;
16624;SDS011;8426;48.496;9.098;2022-11-14T19:27:06;6.35;;;3.40;;
16624;SDS011;8426;48.496;9.098;2022-11-14T19:32:09;7.07;;;3.45;;
16624;SDS011;8426;48.496;9.098;2022-11-14T19:37:13;7.57;;;3.58;;
16624;SDS011;8426;48.496;9.098;2022-11-14T19:42:17;5.85;;;3.60;;
16624;SDS011;8426;48.496;9.098;2022-11-14T19:47:20;9.27;;;4.47;;
16624;SDS011;8426;48.496;9.098;2022-11-14T19:52:25;8.52;;;3.70;;
16624;SDS011;8426;48.496;9.098;2022-11-14T19:57:28;6.55;;;3.78;;
16624;SDS011;8426;48.496;9.098;2022-11-14T20:02:32;5.32;;;3.55;;
16624;SDS011;8426;48.496;9.098;2022-11-14T20:07:40;5.95;;;3.72;;
16624;SDS011;8426;48.496;9.098;2022-11-14T20:12:43;6.75;;;3.90;;
16624;SDS011;8426;48.496;9.098;2022-11-14T20:17:46;12.43;;;5.18;;
16624;SDS011;8426;48.496;9.098;2022-11-14T20:22:51;15.13;;;6.60;;
16624;SDS011;8426;48.496;9.098;2022-11-14T20:27:54;11.00;;;5.50;;
16624;SDS011;8426;48.496;9.098;2022-11-14T20:32:58;12.60;;;5.72;;
16624;SDS011;8426;48.496;9.098;2022-11-14T20:38:03;9.43;;;5.07;;
16624;SDS011;8426;48.496;9.098;2022-11-14T20:43:08;13.07;;;5.75;;
16624;SDS011;8426;48.496;9.098;2022-11-14T20:48:11;13.30;;;5.60;;
16624;SDS011;8426;48.496;9.098;2022-11-14T20:53:16;13.02;;;5.72;;
16624;SDS011;8426;48.496;9.098;2022-11-14T20:58:19;13.55;;;6.05;;
16624;SDS011;8426;48.496;9.098;2022-11-14T21:03:23;11.07;;;5.60;;
16624;SDS011;8426;48.496;9.098;2022-11-14T21:08:29;14.65;;;6.10;;
16624;SDS011;8426;48.496;9.098;2022-11-14T21:13:34;12.38;;;5.43;;
16624;SDS011;8426;48.496;9.098;2022-11-14T21:18:56;6.95;;;4.05;;
16624;SDS011;8426;48.496;9.098;2022-11-14T21:24:01;8.85;;;4.82;;
16624;SDS011;8426;48.496;9.098;2022-11-14T21:29:05;8.73;;;4.20;;
16624;SDS011;8426;48.496;9.098;2022-11-14T21:34:13;6.72;;;3.38;;
16624;SDS011;8426;48.496;9.098;2022-11-14T21:39:19;6.60;;;3.38;;
16624;SDS011;8426;48.496;9.098;2022-11-14T21:44:22;5.28;;;3.05;;
16624;SDS011;8426;48.496;9.098;2022-11-14T21:49:26;5.25;;;3.35;;
16624;SDS011;8426;48.496;9.098;2022-11-14T21:54:30;6.63;;;3.03;;
16624;SDS011;8426;48.496;9.098;2022-11-14T21:59:33;4.88;;;3.00;;
16624;SDS011;8426;48.496;9.098;2022-11-14T22:04:37;6.38;;;3.63;;
16624;SDS011;8426;48.496;9.098;2022-11-14T22:09:42;6.95;;;3.28;;
16624;SDS011;8426;48.496;9.098;2022-11-14T22:14:46;8.85;;;3.75;;
16624;SDS011;8426;48.496;9.098;2022-11-14T22:19:49;5.77;;;3.37;;
16624;SDS011;8426;48.496;9.098;2022-11-14T22:24:53;7.00;;;3.40;;
16624;SDS011;8426;48.496;9.098;2022-11-14T22:29:57;8.37;;;4.03;;
16624;SDS011;8426;48.496;9.098;2022-11-14T22:35:00;8.60;;;3.93;;
16624;SDS011;8426;48.496;9.098;2022-11-14T22:40:06;7.37;;;3.60;;
16624;SDS011;8426;48.496;9.098;2022-11-14T22:45:10;8.87;;;4.13;;
16624;SDS011;8426;48.496;9.098;2022-11-14T22:50:13;8.23;;;3.63;;
16624;SDS011;8426;48.496;9.098;2022-11-14T22:55:18;6.07;;;3.07;;
16624;SDS011;8426;48.496;9.098;2022-11-14T23:00:21;6.10;;;2.37;;
16624;SDS011;8426;48.496;9.098;2022-11-14T23:05:24;4.97;;;2.70;;
16624;SDS011;8426;48.496;9.098;2022-11-14T23:10:31;4.50;;;2.53;;
16624;SDS011;8426;48.496;9.098;2022-11-14T23:15:35;4.50;;;2.23;;
16624;SDS011;8426;48.496;9.098;2022-11-14T23:20:38;6.73;;;2.60;;
16624;SDS011;8426;48.496;9.098;2022-11-14T23:25:43;5.60;;;2.43;;
16624;SDS011;8426;48.496;9.098;2022-11-14T23:30:46;6.47;;;3.40;;
16624;SDS011;8426;48.496;9.098;2022-11-14T23:35:49;6.03;;;3.22;;
16624;SDS011;8426;48.496;9.098;2022-11-14T23:40:54;9.33;;;3.20;;
16624;SDS011;8426;48.496;9.098;2022-11-14T23:45:59;5.70;;;2.80;;
16624;SDS011;8426;48.496;9.098;2022-11-14T23:51:02;8.17;;;3.83;;
16624;SDS011;8426;48.496;9.098;2022-11-14T23:56:09;7.75;;;3.88;;
